createdAt,value
2023-04-17T00:01:39.037Z,1.00
2023-04-17T00:04:11.156Z,1.00
2023-04-17T00:06:43.544Z,1.10
2023-04-17T00:09:16.450Z,1.00
2023-04-17T00:11:47.093Z,1.10
2023-04-17T00:14:20.548Z,1.10
2023-04-17T00:16:53.719Z,0.80
2023-04-17T00:19:24.908Z,0.98
2023-04-17T00:21:55.811Z,0.93
2023-04-17T00:24:29.154Z,0.93
2023-04-17T00:27:07.048Z,1.00
2023-04-17T00:29:37.870Z,0.88
2023-04-17T00:32:06.856Z,0.90
2023-04-17T00:34:35.501Z,0.90
2023-04-17T00:37:06.161Z,1.00
2023-04-17T00:39:34.530Z,0.95
2023-04-17T00:42:05.123Z,0.90
2023-04-17T00:44:32.857Z,0.98
2023-04-17T00:47:03.925Z,1.00
2023-04-17T00:49:32.645Z,1.20
2023-04-17T00:52:01.523Z,0.90
2023-04-17T00:54:29.717Z,1.10
2023-04-17T00:56:58.278Z,0.90
2023-04-17T00:59:32.642Z,0.70
2023-04-17T01:02:00.528Z,1.10
2023-04-17T01:04:31.548Z,1.08
2023-04-17T01:07:00.213Z,0.90
2023-04-17T01:09:30.912Z,0.93
2023-04-17T01:12:23.711Z,0.80
2023-04-17T01:14:58.906Z,1.10
2023-04-17T01:17:32.540Z,0.90
2023-04-17T01:20:09.023Z,0.82
2023-04-17T01:22:36.853Z,0.80
2023-04-17T01:25:08.494Z,0.75
2023-04-17T01:27:46.409Z,1.00
2023-04-17T01:30:14.208Z,1.10
2023-04-17T01:32:56.314Z,0.80
2023-04-17T01:35:27.538Z,0.90
2023-04-17T01:38:01.480Z,0.80
2023-04-17T01:40:34.506Z,1.00
2023-04-17T01:43:07.578Z,1.02
2023-04-17T01:45:37.732Z,0.77
2023-04-17T01:48:06.445Z,0.90
2023-04-17T01:50:41.395Z,1.00
2023-04-17T01:55:42.372Z,1.05
2023-04-17T01:58:22.349Z,0.90
2023-04-17T02:00:56.166Z,0.98
2023-04-17T02:03:32.122Z,0.80
2023-04-17T02:06:00.811Z,0.80
2023-04-17T02:08:31.591Z,0.85
2023-04-17T02:11:05.421Z,1.00
2023-04-17T02:13:33.302Z,0.80
2023-04-17T02:16:07.569Z,1.00
2023-04-17T02:18:42.144Z,0.98
2023-04-17T02:21:09.969Z,1.00
2023-04-17T02:23:45.186Z,0.90
2023-04-17T02:26:15.975Z,1.00
2023-04-17T02:28:48.396Z,0.80
2023-04-17T02:31:23.491Z,0.70
2023-04-17T02:33:55.482Z,0.80
2023-04-17T02:36:23.783Z,0.90
2023-04-17T02:38:55.545Z,0.90
2023-04-17T02:41:29.384Z,0.90
2023-04-17T02:44:01.188Z,0.80
2023-04-17T02:46:34.604Z,0.80
2023-04-17T02:51:40.687Z,0.90
2023-04-17T02:54:12.483Z,1.00
2023-04-17T02:56:43.414Z,0.95
2023-04-17T02:59:15.507Z,0.70
2023-04-17T03:01:45.782Z,0.82
2023-04-17T03:04:18.587Z,1.02
2023-04-17T03:06:49.400Z,1.10
2023-04-17T03:09:22.542Z,0.90
2023-04-17T03:11:54.351Z,0.90
2023-04-17T03:14:24.665Z,0.80
2023-04-17T03:17:01.480Z,1.00
2023-04-17T03:19:35.729Z,0.90
2023-04-17T03:22:11.394Z,1.10
2023-04-17T03:24:47.908Z,0.90
2023-04-17T03:27:24.536Z,1.30
2023-04-17T03:30:02.316Z,1.50
2023-04-17T03:32:38.648Z,1.30
2023-04-17T03:35:14.656Z,1.92
2023-04-17T03:37:51.505Z,1.60
2023-04-17T03:40:24.682Z,1.75
2023-04-17T03:42:59.246Z,1.13
2023-04-17T03:45:36.733Z,1.58
2023-04-17T03:48:12.763Z,1.33
2023-04-17T03:50:48.219Z,1.10
2023-04-17T03:53:27.478Z,1.00
2023-04-17T03:55:58.767Z,1.55
2023-04-17T03:58:40.768Z,1.25
2023-04-17T04:01:22.186Z,1.20
2023-04-17T04:04:26.220Z,1.48
2023-04-17T04:07:07.248Z,1.08
2023-04-17T04:09:49.207Z,1.23
2023-04-17T04:12:30.728Z,1.17
2023-04-17T04:15:08.698Z,1.10
2023-04-17T04:17:40.924Z,1.23
2023-04-17T04:20:17.778Z,0.88
2023-04-17T04:22:51.724Z,1.13
2023-04-17T04:25:41.714Z,1.00
2023-04-17T04:28:25.678Z,1.20
2023-04-17T04:31:05.773Z,1.33
2023-04-17T04:33:55.050Z,1.17
2023-04-17T04:36:30.173Z,1.20
2023-04-17T04:39:26.870Z,1.05
2023-04-17T04:42:10.028Z,0.93
2023-04-17T04:45:07.387Z,1.20
2023-04-17T04:47:36.528Z,1.17
2023-04-17T04:50:16.741Z,1.17
2023-04-17T04:52:53.185Z,1.35
2023-04-17T04:56:04.073Z,0.98
2023-04-17T04:58:43.664Z,1.20
2023-04-17T05:01:24.249Z,1.20
2023-04-17T05:04:01.138Z,0.98
2023-04-17T05:06:41.785Z,1.10
2023-04-17T05:09:23.679Z,0.90
2023-04-17T05:12:03.136Z,1.05
2023-04-17T05:14:39.229Z,0.90
2023-04-17T05:17:17.548Z,1.02
2023-04-17T05:19:51.058Z,0.90
2023-04-17T05:22:21.909Z,1.00
2023-04-17T05:25:08.769Z,0.90
2023-04-17T05:27:40.007Z,1.17
2023-04-17T05:30:15.943Z,1.10
2023-04-17T05:32:54.875Z,0.93
2023-04-17T05:35:47.973Z,1.75
2023-04-17T05:38:25.088Z,1.20
2023-04-17T05:40:55.629Z,1.13
2023-04-17T05:43:28.037Z,1.00
2023-04-17T05:46:06.871Z,1.10
2023-04-17T05:48:37.734Z,1.20
2023-04-17T05:51:15.250Z,1.00
2023-04-17T05:53:49.524Z,1.30
2023-04-17T05:56:23.579Z,1.00
2023-04-17T05:58:54.605Z,1.00
2023-04-17T06:01:30.751Z,1.00
2023-04-17T06:04:08.447Z,1.10
2023-04-17T06:06:39.380Z,0.93
2023-04-17T06:09:12.930Z,1.02
2023-04-17T06:14:20.085Z,1.20
2023-04-17T06:16:51.769Z,1.25
2023-04-17T06:19:22.576Z,1.13
2023-04-17T06:21:51.027Z,1.17
2023-04-17T06:24:20.721Z,0.93
2023-04-17T06:26:52.054Z,0.90
2023-04-17T06:29:19.988Z,1.00
2023-04-17T06:31:51.622Z,1.30
2023-04-17T06:34:22.007Z,1.00
2023-04-17T06:36:53.876Z,1.10
2023-04-17T06:39:23.650Z,1.10
2023-04-17T06:41:59.404Z,1.10
2023-04-17T06:44:38.743Z,1.23
2023-04-17T06:47:21.592Z,0.95
2023-04-17T06:50:00.925Z,1.20
2023-04-17T06:52:37.354Z,1.20
2023-04-17T06:55:13.701Z,1.33
2023-04-17T06:57:52.423Z,1.30
2023-04-17T07:00:38.486Z,1.50
2023-04-17T07:03:14.205Z,1.15
2023-04-17T07:05:47.735Z,1.10
2023-04-17T07:08:25.146Z,1.35
2023-04-17T07:11:03.037Z,1.08
2023-04-17T07:13:40.165Z,1.10
2023-04-17T07:16:21.808Z,1.10
2023-04-17T07:18:59.333Z,1.58
2023-04-17T07:21:37.611Z,1.13
2023-04-17T07:24:13.554Z,1.15
2023-04-17T07:26:49.793Z,0.90
2023-04-17T07:29:23.716Z,1.17
2023-04-17T07:31:55.030Z,1.05
2023-04-17T07:34:33.670Z,1.27
2023-04-17T07:37:15.977Z,1.25
2023-04-17T07:39:56.701Z,1.42
2023-04-17T07:42:31.708Z,1.13
2023-04-17T07:45:08.831Z,1.20
2023-04-17T07:47:42.184Z,1.15
2023-04-17T07:50:24.021Z,1.33
2023-04-17T07:53:04.224Z,1.20
2023-04-17T07:55:45.635Z,1.30
2023-04-17T07:58:27.412Z,1.20
2023-04-17T08:01:11.009Z,1.20
2023-04-17T08:03:47.347Z,1.25
2023-04-17T08:06:19.115Z,1.27
2023-04-17T08:08:57.821Z,1.60
2023-04-17T08:11:26.157Z,1.30
2023-04-17T08:13:57.322Z,1.40
2023-04-17T08:16:32.079Z,1.33
2023-04-17T08:19:05.517Z,1.20
2023-04-17T08:21:36.194Z,1.30
2023-04-17T08:24:13.075Z,1.10
2023-04-17T08:26:43.616Z,1.33
2023-04-17T08:29:21.418Z,1.30
2023-04-17T08:31:53.385Z,1.42
2023-04-17T08:34:33.106Z,1.30
2023-04-17T08:37:09.210Z,1.35
2023-04-17T08:39:52.738Z,1.23
2023-04-17T08:42:30.640Z,1.35
2023-04-17T08:45:17.171Z,1.20
2023-04-17T08:48:02.547Z,1.30
2023-04-17T08:50:35.492Z,1.20
2023-04-17T08:53:10.148Z,1.10
2023-04-17T08:55:41.522Z,1.40
2023-04-17T08:58:24.025Z,1.20
2023-04-17T09:00:56.100Z,1.23
2023-04-17T09:03:41.284Z,1.00
2023-04-17T09:06:16.018Z,1.10
2023-04-17T09:09:01.872Z,1.30
2023-04-17T09:11:36.976Z,1.10
2023-04-17T09:14:31.623Z,1.20
2023-04-17T09:17:07.431Z,1.20
2023-04-17T09:19:58.355Z,1.30
2023-04-17T09:22:40.305Z,1.20
2023-04-17T09:25:21.599Z,1.15
2023-04-17T09:28:04.465Z,1.30
2023-04-17T09:30:47.954Z,1.33
2023-04-17T09:33:27.334Z,0.90
2023-04-17T09:35:55.451Z,1.15
2023-04-17T09:38:43.440Z,1.27
2023-04-17T09:41:32.471Z,1.20
2023-04-17T09:44:06.549Z,1.27
2023-04-17T09:46:49.328Z,1.30
2023-04-17T09:49:33.904Z,1.10
2023-04-17T09:52:08.054Z,1.00
2023-04-17T09:54:40.545Z,1.42
2023-04-17T09:57:13.612Z,1.20
2023-04-17T09:59:50.712Z,1.20
2023-04-17T10:02:24.191Z,0.90
2023-04-17T10:04:58.069Z,1.02
2023-04-17T10:07:26.351Z,1.10
2023-04-17T10:09:56.953Z,1.27
2023-04-17T10:12:26.499Z,1.15
2023-04-17T10:15:01.298Z,1.42
2023-04-17T10:17:32.699Z,1.23
2023-04-17T10:20:20.489Z,1.38
2023-04-17T10:23:01.382Z,1.27
2023-04-17T10:25:35.529Z,1.10
2023-04-17T10:28:09.424Z,1.20
2023-04-17T10:30:55.503Z,1.15
2023-04-17T10:33:27.391Z,1.17
2023-04-17T10:36:08.085Z,1.08
2023-04-17T10:38:43.857Z,1.27
2023-04-17T10:41:15.245Z,1.20
2023-04-17T10:43:52.493Z,1.00
2023-04-17T10:46:32.450Z,1.30
2023-04-17T10:49:06.245Z,1.00
2023-04-17T10:51:50.162Z,1.13
2023-04-17T10:54:33.235Z,0.90
2023-04-17T10:57:15.102Z,1.00
2023-04-17T11:00:14.061Z,1.20
2023-04-17T11:02:56.141Z,1.05
2023-04-17T11:05:33.286Z,1.02
2023-04-17T11:08:04.212Z,0.98
2023-04-17T11:10:38.339Z,1.10
2023-04-17T11:13:18.033Z,1.20
2023-04-17T11:16:01.607Z,1.13
2023-04-17T11:18:35.155Z,1.10
2023-04-17T11:21:15.333Z,1.38
2023-04-17T11:23:52.738Z,1.13
2023-04-17T11:26:30.192Z,1.05
2023-04-17T11:29:02.064Z,1.13
2023-04-17T11:31:32.850Z,1.27
2023-04-17T11:34:11.313Z,1.13
2023-04-17T11:36:41.836Z,1.20
2023-04-17T11:39:21.596Z,1.17
2023-04-17T11:42:00.165Z,0.98
2023-04-17T11:44:34.092Z,1.25
2023-04-17T11:47:13.675Z,1.42
2023-04-17T11:49:47.116Z,0.77
2023-04-17T11:52:21.085Z,1.10
2023-04-17T11:55:02.873Z,1.00
2023-04-17T11:57:45.747Z,0.95
2023-04-17T12:00:20.715Z,1.02
2023-04-17T12:02:52.151Z,0.95
2023-04-17T12:05:21.532Z,0.90
2023-04-17T12:08:12.666Z,1.10
2023-04-17T12:10:52.677Z,1.08
2023-04-17T12:13:23.996Z,0.85
2023-04-17T12:15:58.711Z,1.08
2023-04-17T12:18:35.476Z,0.90
2023-04-17T12:21:03.712Z,0.82
2023-04-17T12:23:36.909Z,0.82
2023-04-17T12:26:13.546Z,0.85
2023-04-17T12:28:44.984Z,0.95
2023-04-17T12:31:23.119Z,1.00
2023-04-17T12:33:53.976Z,1.13
2023-04-17T12:36:35.774Z,1.10
2023-04-17T12:39:11.263Z,0.85
2023-04-17T12:41:45.749Z,0.90
2023-04-17T12:44:24.618Z,1.17
2023-04-17T12:46:55.947Z,1.00
2023-04-17T12:49:23.905Z,1.00
2023-04-17T12:51:57.746Z,0.85
2023-04-17T12:54:25.671Z,1.00
2023-04-17T12:56:59.089Z,1.00
2023-04-17T12:59:30.716Z,0.88
2023-04-17T13:02:01.489Z,1.00
2023-04-17T13:04:34.359Z,1.00
2023-04-17T13:07:04.425Z,1.05
2023-04-17T13:09:37.620Z,0.98
2023-04-17T13:12:12.515Z,0.68
2023-04-17T13:14:45.794Z,0.88
2023-04-17T13:17:21.316Z,1.10
2023-04-17T13:19:50.494Z,1.20
2023-04-17T13:22:23.754Z,1.02
2023-04-17T13:27:40.314Z,1.27
2023-04-17T13:30:18.991Z,1.05
2023-04-17T13:32:51.358Z,1.00
2023-04-17T13:35:25.173Z,1.07
2023-04-17T13:37:57.941Z,0.90
2023-04-17T13:40:30.795Z,1.05
2023-04-17T13:43:10.279Z,1.00
2023-04-17T13:45:47.151Z,0.88
2023-04-17T13:48:17.452Z,0.95
2023-04-17T13:50:53.117Z,0.93
2023-04-17T13:53:23.780Z,1.00
2023-04-17T13:55:59.551Z,1.10
2023-04-17T14:01:15.554Z,1.10
2023-04-17T14:03:54.174Z,0.98
2023-04-17T14:06:38.011Z,0.90
2023-04-17T14:11:51.518Z,1.10
2023-04-17T14:14:36.392Z,1.10
2023-04-17T14:17:13.458Z,1.20
2023-04-17T14:19:46.710Z,1.08
2023-04-17T14:22:23.836Z,0.98
2023-04-17T14:25:02.200Z,1.00
2023-04-17T14:27:36.504Z,1.02
2023-04-17T14:30:16.297Z,1.02
2023-04-17T14:32:55.062Z,1.10
2023-04-17T14:35:28.296Z,1.10
2023-04-17T14:38:07.026Z,0.90
2023-04-17T14:40:35.150Z,1.30
2023-04-17T14:43:17.589Z,1.23
2023-04-17T14:45:56.046Z,1.00
2023-04-17T14:48:34.357Z,0.90
2023-04-17T14:51:15.327Z,1.08
2023-04-17T14:53:53.202Z,1.10
2023-04-17T14:56:29.396Z,1.48
2023-04-17T14:59:05.856Z,1.10
2023-04-17T15:01:38.384Z,0.88
2023-04-17T15:04:19.040Z,1.10
2023-04-17T15:06:55.212Z,1.02
2023-04-17T15:09:32.219Z,1.13
2023-04-17T15:12:05.687Z,1.08
2023-04-17T15:17:09.063Z,1.40
2023-04-17T15:19:41.790Z,1.00
2023-04-17T15:22:14.749Z,1.00
2023-04-17T15:24:48.315Z,1.23
2023-04-17T15:27:24.562Z,1.05
2023-04-17T15:30:14.537Z,1.10
2023-04-17T15:32:58.735Z,1.10
2023-04-17T15:35:34.240Z,1.20
2023-04-17T15:38:15.667Z,1.40
2023-04-17T15:41:03.061Z,1.23
2023-04-17T15:43:33.926Z,1.20
2023-04-17T15:46:16.094Z,1.35
2023-04-17T15:49:04.886Z,1.25
2023-04-17T15:51:37.269Z,1.10
2023-04-17T15:54:12.268Z,1.40
2023-04-17T15:56:51.091Z,1.30
2023-04-17T15:59:33.705Z,1.30
2023-04-17T16:02:02.196Z,1.30
2023-04-17T16:04:39.775Z,1.17
2023-04-17T16:07:14.306Z,1.30
2023-04-17T16:09:46.751Z,1.20
2023-04-17T16:12:14.773Z,1.40
2023-04-17T16:14:45.344Z,1.02
2023-04-17T16:17:23.724Z,1.33
2023-04-17T16:19:58.864Z,1.38
2023-04-17T16:22:27.817Z,1.50
2023-04-17T16:25:02.920Z,1.33
2023-04-17T16:27:39.433Z,1.15
2023-04-17T16:30:08.346Z,1.30
2023-04-17T16:32:39.021Z,1.48
2023-04-17T16:35:12.189Z,1.45
2023-04-17T16:37:43.273Z,1.50
2023-04-17T16:40:17.977Z,1.20
2023-04-17T16:42:47.936Z,1.30
2023-04-17T16:45:24.035Z,1.40
2023-04-17T16:47:59.612Z,1.38
2023-04-17T16:50:30.712Z,1.55
2023-04-17T16:53:09.401Z,1.33
2023-04-17T16:55:47.986Z,1.33
2023-04-17T16:58:27.381Z,1.20
2023-04-17T17:01:02.134Z,1.23
2023-04-17T17:03:37.984Z,1.30
2023-04-17T17:06:12.932Z,1.52
2023-04-17T17:08:46.726Z,1.38
2023-04-17T17:11:21.139Z,1.40
2023-04-17T17:13:49.815Z,1.27
2023-04-17T17:16:21.461Z,1.17
2023-04-17T17:18:52.430Z,1.30
2023-04-17T17:21:22.448Z,1.20
2023-04-17T17:23:53.532Z,1.25
2023-04-17T17:26:29.449Z,1.33
2023-04-17T17:29:05.688Z,1.15
2023-04-17T17:31:41.026Z,1.05
2023-04-17T17:34:25.965Z,1.20
2023-04-17T17:37:08.307Z,1.20
2023-04-17T17:39:42.779Z,1.20
2023-04-17T17:42:16.703Z,1.30
2023-04-17T17:44:49.763Z,1.30
2023-04-17T17:47:30.960Z,1.38
2023-04-17T17:49:59.390Z,1.30
2023-04-17T17:52:34.454Z,1.30
2023-04-17T17:55:13.809Z,1.30
2023-04-17T17:57:51.102Z,1.50
2023-04-17T18:00:29.604Z,1.08
2023-04-17T18:03:10.857Z,1.13
2023-04-17T18:05:46.521Z,1.33
2023-04-17T18:08:25.080Z,1.48
2023-04-17T18:11:01.202Z,1.25
2023-04-17T18:13:34.325Z,1.30
2023-04-17T18:16:08.857Z,1.20
2023-04-17T18:18:52.394Z,1.45
2023-04-17T18:21:23.170Z,1.30
2023-04-17T18:43:47.949Z,1.38
2023-04-17T18:46:26.300Z,1.40
2023-04-17T18:52:05.714Z,1.38
2023-04-17T18:54:39.007Z,1.60
2023-04-17T18:57:16.445Z,1.48
2023-04-17T18:59:52.689Z,1.35
2023-04-17T19:02:21.635Z,1.50
2023-04-17T19:04:56.938Z,1.40
2023-04-17T19:07:30.839Z,1.30
2023-04-17T19:10:08.405Z,1.50
2023-04-17T19:12:45.254Z,1.40
2023-04-17T19:15:22.072Z,1.50
2023-04-17T19:18:00.277Z,1.45
2023-04-17T19:20:39.976Z,1.50
2023-04-17T19:23:27.432Z,1.42
2023-04-17T19:26:09.804Z,1.45
2023-04-17T19:28:48.969Z,1.33
2023-04-17T19:31:24.830Z,1.40
2023-04-17T19:33:57.527Z,1.30
2023-04-17T19:36:36.853Z,1.60
2023-04-17T19:39:18.160Z,1.48
2023-04-17T19:41:52.107Z,1.67
2023-04-17T19:44:28.176Z,1.30
2023-04-17T19:47:04.598Z,1.42
2023-04-17T19:49:37.865Z,1.30
2023-04-17T19:52:16.779Z,1.52
2023-04-17T19:54:55.417Z,1.60
2023-04-17T19:57:33.432Z,1.20
2023-04-17T20:00:10.288Z,1.55
2023-04-17T20:02:48.849Z,1.40
2023-04-17T20:05:31.176Z,1.40
2023-04-17T20:08:09.420Z,1.48
2023-04-17T20:10:48.716Z,1.38
2023-04-17T20:13:25.833Z,1.60
2023-04-17T20:16:02.535Z,1.58
2023-04-17T20:18:46.496Z,1.50
2023-04-17T20:21:22.177Z,1.35
2023-04-17T20:24:02.862Z,1.40
2023-04-17T20:26:42.043Z,1.40
2023-04-17T20:29:19.267Z,1.27
2023-04-17T20:31:57.928Z,1.50
2023-04-17T20:34:35.685Z,1.20
2023-04-17T20:37:09.056Z,1.45
2023-04-17T20:39:44.801Z,1.40
2023-04-17T20:42:23.657Z,1.50
2023-04-17T20:44:56.699Z,1.50
2023-04-17T20:47:46.164Z,1.50
2023-04-17T20:50:26.262Z,1.50
2023-04-17T20:53:02.349Z,1.42
2023-04-17T20:55:46.884Z,1.60
2023-04-17T20:58:26.391Z,1.40
2023-04-17T21:01:07.523Z,1.48
2023-04-17T21:03:52.869Z,1.40
2023-04-17T21:06:33.269Z,1.40
2023-04-17T21:09:16.352Z,1.38
2023-04-17T21:11:58.234Z,1.38
2023-04-17T21:14:35.955Z,1.27
2023-04-17T21:17:11.804Z,1.50
2023-04-17T21:19:42.841Z,1.30
2023-04-17T21:22:25.272Z,1.40
2023-04-17T21:24:58.271Z,1.60
2023-04-17T21:27:36.699Z,1.50
2023-04-17T21:30:11.114Z,1.50
2023-04-17T21:32:48.336Z,1.38
2023-04-17T21:35:26.913Z,1.50
2023-04-17T21:37:59.168Z,1.55
2023-04-17T21:40:37.078Z,1.60
2023-04-17T21:43:10.397Z,1.30
2023-04-17T21:45:48.248Z,1.65
2023-04-17T21:48:21.201Z,1.50
2023-04-17T21:50:55.816Z,1.50
2023-04-17T21:53:34.037Z,1.20
2023-04-17T21:56:09.851Z,1.67
2023-04-17T21:58:51.781Z,1.60
2023-04-17T22:01:23.258Z,1.33
2023-04-17T22:04:00.463Z,1.40
2023-04-17T22:06:39.998Z,1.48
2023-04-17T22:09:10.680Z,1.38
2023-04-17T22:11:39.623Z,1.40
2023-04-17T22:14:16.286Z,1.20
2023-04-17T22:16:55.550Z,1.40
2023-04-17T22:19:34.326Z,1.45
2023-04-17T22:22:10.698Z,1.50
2023-04-17T22:24:46.842Z,1.40
2023-04-17T22:27:16.398Z,1.50
2023-04-17T22:29:47.089Z,1.40
2023-04-17T22:32:23.052Z,1.50
2023-04-17T22:34:58.594Z,1.50
2023-04-17T22:37:34.468Z,1.48
2023-04-17T22:40:08.347Z,1.15
2023-04-17T22:42:44.447Z,1.42
2023-04-17T22:45:20.301Z,1.60
2023-04-17T22:48:01.223Z,1.42
2023-04-17T22:50:38.163Z,1.45
2023-04-17T22:53:13.776Z,1.30
2023-04-17T22:55:49.669Z,1.30
2023-04-17T22:58:28.055Z,1.50
2023-04-17T23:01:08.323Z,1.40
2023-04-17T23:03:46.683Z,1.40
2023-04-17T23:06:19.261Z,1.30
2023-04-17T23:08:53.718Z,1.50
2023-04-17T23:11:26.654Z,1.35
2023-04-17T23:14:10.207Z,1.38
2023-04-17T23:16:45.839Z,1.40
2023-04-17T23:19:22.475Z,1.63
2023-04-17T23:22:03.891Z,1.35
2023-04-17T23:24:37.715Z,1.38
2023-04-17T23:27:10.387Z,1.50
2023-04-17T23:29:49.246Z,1.40
2023-04-17T23:32:25.419Z,1.40
2023-04-17T23:35:00.557Z,1.58
2023-04-17T23:37:36.333Z,1.50
2023-04-17T23:40:15.087Z,1.38
2023-04-17T23:42:50.622Z,1.40
2023-04-17T23:45:29.695Z,1.55
2023-04-17T23:48:02.550Z,1.63
2023-04-17T23:50:37.993Z,1.58
2023-04-17T23:53:14.261Z,1.50
2023-04-17T23:55:57.938Z,1.50
2023-04-17T23:58:26.801Z,1.50
